createdAt,value
2018-03-24T00:01:44.863Z,81.40
2018-03-24T00:04:12.501Z,81.10
2018-03-24T00:06:40.121Z,81.10
2018-03-24T00:09:07.853Z,82.30
2018-03-24T00:11:35.477Z,83.40
2018-03-24T00:14:03.097Z,84.00
2018-03-24T00:16:31.684Z,85.50
2018-03-24T00:19:00.069Z,86.10
2018-03-24T00:21:27.684Z,86.10
2018-03-24T00:23:55.313Z,85.60
2018-03-24T00:26:22.937Z,86.40
2018-03-24T00:28:50.564Z,86.80
2018-03-24T00:31:18.192Z,87.30
2018-03-24T00:33:45.817Z,87.10
2018-03-24T00:36:13.525Z,87.20
2018-03-24T00:38:41.921Z,87.10
2018-03-24T00:41:10.317Z,87.30
2018-03-24T00:43:37.932Z,87.10
2018-03-24T00:46:05.568Z,86.50
2018-03-24T00:48:33.196Z,86.50
2018-03-24T00:51:00.829Z,86.70
2018-03-24T00:53:28.441Z,87.00
2018-03-24T00:55:56.833Z,86.70
2018-03-24T00:58:24.472Z,86.70
2018-03-24T01:00:53.885Z,87.20
2018-03-24T01:03:22.274Z,87.90
2018-03-24T01:05:50.665Z,88.20
2018-03-24T01:08:18.294Z,88.20
2018-03-24T01:10:46.680Z,89.50
2018-03-24T01:13:15.065Z,89.80
2018-03-24T01:15:44.201Z,90.10
2018-03-24T01:18:11.824Z,90.10
2018-03-24T01:20:39.457Z,90.40
2018-03-24T01:23:07.077Z,90.40
2018-03-24T01:25:35.474Z,90.60
2018-03-24T01:28:03.860Z,90.50
2018-03-24T01:30:31.789Z,90.40
2018-03-24T01:32:59.417Z,90.50
2018-03-24T01:35:27.039Z,90.20
2018-03-24T01:37:54.660Z,90.50
2018-03-24T01:40:22.285Z,90.60
2018-03-24T01:42:50.689Z,90.60
2018-03-24T01:45:18.305Z,90.60
2018-03-24T01:47:45.924Z,90.50
2018-03-24T01:50:13.547Z,90.50
2018-03-24T01:52:41.173Z,90.50
2018-03-24T01:55:08.789Z,90.60
2018-03-24T01:57:37.173Z,91.40
2018-03-24T02:00:05.565Z,90.90
2018-03-24T02:02:33.973Z,91.00
2018-03-24T02:05:01.604Z,91.00
2018-03-24T02:07:29.997Z,91.10
2018-03-24T02:09:58.376Z,91.10
2018-03-24T02:12:27.765Z,91.10
2018-03-24T02:14:55.791Z,91.10
2018-03-24T02:17:24.145Z,91.30
2018-03-24T02:19:52.547Z,91.70
2018-03-24T02:22:20.160Z,91.30
2018-03-24T02:24:47.787Z,91.40
2018-03-24T02:27:15.733Z,91.40
2018-03-24T02:29:44.121Z,91.40
2018-03-24T02:32:12.511Z,91.40
2018-03-24T02:34:40.133Z,91.40
2018-03-24T02:37:07.758Z,91.40
2018-03-24T02:39:35.385Z,91.40
2018-03-24T02:42:03.000Z,91.40
2018-03-24T02:44:30.636Z,91.60
2018-03-24T02:46:59.021Z,91.60
2018-03-24T02:49:26.642Z,91.60
2018-03-24T02:51:54.573Z,91.60
2018-03-24T02:54:22.194Z,91.70
2018-03-24T02:56:49.817Z,91.60
2018-03-24T02:59:17.445Z,91.70
2018-03-24T03:01:45.830Z,91.80
2018-03-24T03:04:14.233Z,91.80
2018-03-24T03:06:41.852Z,91.70
2018-03-24T03:09:09.485Z,91.70
2018-03-24T03:11:37.104Z,91.60
2018-03-24T03:14:04.733Z,92.00
2018-03-24T03:16:32.856Z,91.70
2018-03-24T03:19:01.232Z,91.70
2018-03-24T03:24:28.373Z,91.60
2018-03-24T03:26:56.309Z,91.70
2018-03-24T03:29:23.928Z,91.70
2018-03-24T03:31:52.312Z,91.80
2018-03-24T03:34:20.701Z,91.80
2018-03-24T03:36:49.097Z,91.60
2018-03-24T03:39:16.725Z,91.60
2018-03-24T03:41:44.348Z,91.60
2018-03-24T03:44:11.969Z,91.60
2018-03-24T03:46:39.584Z,91.60
2018-03-24T03:49:07.218Z,91.60
2018-03-24T03:51:35.600Z,91.30
2018-03-24T03:54:03.991Z,91.30
2018-03-24T03:56:32.868Z,91.40
2018-03-24T03:59:00.484Z,91.40
2018-03-24T04:01:28.100Z,91.10
2018-03-24T04:03:56.497Z,91.70
2018-03-24T04:06:24.885Z,91.40
2018-03-24T04:08:52.521Z,91.40
2018-03-24T04:11:20.147Z,91.40
2018-03-24T04:13:48.151Z,90.90
2018-03-24T04:16:15.769Z,91.00
2018-03-24T04:18:43.400Z,91.70
2018-03-24T04:21:11.025Z,91.40
2018-03-24T04:23:38.640Z,91.60
2018-03-24T04:26:07.040Z,92.00
2018-03-24T04:28:34.673Z,91.90
2018-03-24T04:31:02.293Z,92.00
2018-03-24T04:33:29.916Z,92.40
2018-03-24T04:35:57.940Z,93.10
2018-03-24T04:38:25.581Z,93.20
2018-03-24T04:40:53.961Z,93.30
2018-03-24T04:43:21.590Z,93.30
2018-03-24T04:45:49.220Z,93.00
2018-03-24T04:48:16.846Z,93.10
2018-03-24T04:50:45.246Z,93.20
2018-03-24T04:53:12.865Z,93.10
2018-03-24T04:55:40.497Z,93.00
2018-03-24T04:58:08.117Z,93.10
2018-03-24T05:00:35.745Z,93.10
2018-03-24T05:03:03.374Z,93.10
2018-03-24T05:05:31.005Z,93.00
2018-03-24T05:07:58.616Z,92.80
2018-03-24T05:10:26.253Z,92.70
2018-03-24T05:12:53.874Z,92.70
2018-03-24T05:15:21.499Z,92.80
2018-03-24T05:17:49.121Z,92.40
2018-03-24T05:20:16.748Z,92.80
2018-03-24T05:22:44.380Z,93.00
2018-03-24T05:25:11.992Z,92.90
2018-03-24T05:27:39.625Z,92.80
2018-03-24T05:30:08.422Z,92.60
2018-03-24T05:32:36.809Z,92.60
2018-03-24T05:35:04.433Z,92.60
2018-03-24T05:37:32.056Z,92.50
2018-03-24T05:39:59.692Z,92.20
2018-03-24T05:42:28.097Z,92.30
2018-03-24T05:44:55.721Z,92.30
2018-03-24T05:47:23.350Z,91.80
2018-03-24T05:49:50.969Z,92.00
2018-03-24T05:52:19.368Z,92.20
2018-03-24T05:54:47.000Z,92.20
2018-03-24T05:57:14.630Z,92.10
2018-03-24T05:59:42.250Z,92.10
2018-03-24T06:02:16.454Z,91.90
2018-03-24T06:04:44.093Z,91.80
2018-03-24T06:07:11.713Z,92.10
2018-03-24T06:09:40.101Z,91.70
2018-03-24T06:12:07.726Z,91.70
2018-03-24T06:14:35.344Z,92.00
2018-03-24T06:17:02.970Z,91.70
2018-03-24T06:19:30.600Z,91.70
2018-03-24T06:21:58.222Z,91.90
2018-03-24T06:24:26.612Z,91.90
2018-03-24T06:26:54.232Z,91.90
2018-03-24T06:29:21.873Z,91.80
2018-03-24T06:31:49.490Z,92.00
2018-03-24T06:34:17.118Z,91.70
2018-03-24T06:36:44.741Z,91.80
2018-03-24T06:39:12.360Z,91.80
2018-03-24T06:41:39.985Z,91.80
2018-03-24T06:44:07.617Z,91.80
2018-03-24T06:46:35.320Z,91.80
2018-03-24T06:49:02.936Z,91.70
2018-03-24T06:51:30.572Z,91.50
2018-03-24T06:53:58.198Z,91.30
2018-03-24T06:56:27.575Z,91.60
2018-03-24T06:58:55.209Z,91.60
2018-03-24T07:01:22.829Z,91.40
2018-03-24T07:03:51.229Z,90.90
2018-03-24T07:06:18.863Z,90.90
2018-03-24T07:08:46.473Z,91.10
2018-03-24T07:11:14.101Z,90.90
2018-03-24T07:13:41.725Z,91.10
2018-03-24T07:16:09.354Z,90.80
2018-03-24T07:18:37.015Z,91.10
2018-03-24T07:21:05.401Z,90.60
2018-03-24T07:23:33.789Z,90.60
2018-03-24T07:26:01.412Z,90.60
2018-03-24T07:28:29.037Z,90.60
2018-03-24T07:30:56.970Z,90.40
2018-03-24T07:33:24.597Z,90.40
2018-03-24T07:35:52.225Z,90.50
2018-03-24T07:38:19.853Z,90.20
2018-03-24T07:40:47.478Z,90.00
2018-03-24T07:43:15.109Z,88.40
2018-03-24T07:45:43.499Z,87.90
2018-03-24T07:48:11.892Z,87.20
2018-03-24T07:50:39.521Z,87.20
2018-03-24T07:53:07.141Z,87.20
2018-03-24T07:55:34.776Z,87.50
2018-03-24T07:58:03.178Z,86.10
2018-03-24T08:00:31.122Z,86.10
2018-03-24T08:02:58.740Z,85.30
2018-03-24T08:05:26.428Z,86.20
2018-03-24T08:07:54.053Z,85.80
2018-03-24T08:10:21.673Z,85.90
2018-03-24T08:12:49.297Z,84.90
2018-03-24T08:15:16.924Z,85.40
2018-03-24T08:17:44.541Z,83.40
2018-03-24T08:20:12.290Z,82.20
2018-03-24T08:22:40.657Z,81.70
2018-03-24T08:25:08.302Z,81.70
2018-03-24T08:27:35.926Z,81.20
2018-03-24T08:30:03.554Z,82.10
2018-03-24T08:32:31.184Z,81.90
2018-03-24T08:34:58.813Z,79.90
2018-03-24T08:37:26.756Z,80.30
2018-03-24T08:39:54.380Z,80.20
2018-03-24T08:42:22.013Z,79.10
2018-03-24T08:44:49.632Z,80.40
2018-03-24T08:47:17.248Z,77.80
2018-03-24T08:49:45.298Z,79.10
2018-03-24T08:52:12.921Z,77.90
2018-03-24T08:54:40.542Z,75.90
2018-03-24T08:57:08.174Z,75.40
2018-03-24T08:59:35.801Z,73.60
2018-03-24T09:02:03.428Z,74.00
2018-03-24T09:04:31.809Z,73.80
2018-03-24T09:06:59.433Z,73.00
2018-03-24T09:09:27.546Z,70.10
2018-03-24T09:11:55.940Z,67.20
2018-03-24T09:14:23.557Z,67.30
2018-03-24T09:16:51.192Z,63.70
2018-03-24T09:19:18.818Z,62.40
2018-03-24T09:21:47.223Z,62.70
2018-03-24T09:24:14.853Z,62.60
2018-03-24T09:26:43.988Z,58.60
2018-03-24T09:29:11.609Z,58.50
2018-03-24T09:31:39.232Z,62.10
2018-03-24T09:34:06.874Z,59.10
2018-03-24T09:36:35.269Z,57.90
2018-03-24T09:39:02.901Z,58.00
2018-03-24T09:41:30.524Z,58.30
2018-03-24T09:43:58.161Z,56.70
2018-03-24T09:46:26.117Z,54.10
2018-03-24T09:48:54.509Z,56.50
2018-03-24T09:51:22.906Z,55.80
2018-03-24T09:53:50.536Z,55.80
2018-03-24T09:56:18.161Z,52.70
2018-03-24T09:58:45.788Z,55.20
2018-03-24T10:01:20.908Z,57.50
2018-03-24T10:03:48.533Z,57.40
2018-03-24T10:06:16.162Z,54.90
2018-03-24T10:08:43.797Z,53.60
2018-03-24T10:11:11.433Z,52.50
2018-03-24T10:13:39.059Z,51.70
2018-03-24T10:16:07.452Z,51.30
2018-03-24T10:18:35.076Z,51.10
2018-03-24T10:24:17.400Z,43.50
2018-03-24T10:26:45.806Z,44.40
2018-03-24T10:29:13.429Z,44.30
2018-03-24T10:31:41.050Z,45.90
2018-03-24T10:34:08.680Z,40.80
2018-03-24T10:36:37.078Z,43.10
2018-03-24T10:39:04.702Z,43.20
2018-03-24T10:41:32.337Z,42.70
2018-03-24T10:44:00.053Z,46.30
2018-03-24T10:46:27.674Z,44.60
2018-03-24T10:48:55.298Z,47.20
2018-03-24T10:51:23.706Z,48.90
2018-03-24T10:53:52.377Z,45.30
2018-03-24T10:56:20.773Z,43.70
2018-03-24T10:58:48.405Z,43.80
2018-03-24T11:01:16.401Z,40.40
2018-03-24T11:03:44.790Z,43.10
2018-03-24T11:06:13.172Z,40.60
2018-03-24T11:08:41.562Z,38.50
2018-03-24T11:11:09.956Z,39.80
2018-03-24T11:13:37.590Z,39.50
2018-03-24T11:16:05.192Z,35.00
2018-03-24T11:18:32.816Z,39.40
2018-03-24T11:21:00.438Z,38.80
2018-03-24T11:23:28.065Z,38.90
2018-03-24T11:25:56.464Z,39.90
2018-03-24T11:28:24.071Z,39.90
2018-03-24T11:30:51.697Z,38.90
2018-03-24T11:33:29.673Z,35.70
2018-03-24T11:35:57.296Z,38.30
2018-03-24T11:38:24.920Z,38.10
2018-03-24T11:40:53.303Z,42.20
2018-03-24T11:43:20.925Z,42.40
2018-03-24T11:45:48.536Z,42.10
2018-03-24T11:48:16.187Z,41.40
2018-03-24T11:50:43.792Z,39.60
2018-03-24T11:53:11.413Z,44.00
2018-03-24T11:55:39.041Z,43.20
2018-03-24T11:58:06.659Z,42.20
2018-03-24T12:00:35.049Z,42.50
2018-03-24T12:03:02.673Z,42.40
2018-03-24T12:05:30.293Z,42.20
2018-03-24T12:07:57.921Z,44.00
2018-03-24T12:10:25.540Z,41.70
2018-03-24T12:12:53.166Z,42.90
2018-03-24T12:15:21.560Z,46.60
2018-03-24T12:17:49.189Z,46.60
2018-03-24T12:20:18.320Z,45.10
2018-03-24T12:22:46.708Z,46.00
2018-03-24T12:25:14.328Z,45.90
2018-03-24T12:27:42.246Z,44.40
2018-03-24T12:30:10.637Z,45.40
2018-03-24T12:32:38.257Z,45.50
2018-03-24T12:35:05.896Z,43.90
2018-03-24T12:37:33.521Z,45.00
2018-03-24T12:40:01.912Z,44.40
2018-03-24T12:42:30.296Z,41.30
2018-03-24T12:44:57.912Z,41.20
2018-03-24T12:47:25.533Z,42.70
2018-03-24T12:49:53.153Z,44.30
2018-03-24T12:52:20.776Z,43.80
2018-03-24T12:54:48.475Z,41.40
2018-03-24T12:57:16.068Z,42.70
2018-03-24T12:59:43.694Z,42.30
2018-03-24T13:02:11.327Z,47.00
2018-03-24T13:04:38.941Z,43.60
2018-03-24T13:07:06.561Z,45.00
2018-03-24T13:09:34.185Z,43.30
2018-03-24T13:12:01.826Z,42.20
2018-03-24T13:14:29.449Z,46.90
2018-03-24T13:16:57.837Z,44.00
2018-03-24T13:19:25.465Z,44.00
2018-03-24T13:21:53.076Z,43.50
2018-03-24T13:24:20.721Z,46.40
2018-03-24T13:26:49.110Z,47.60
2018-03-24T13:29:17.480Z,46.80
2018-03-24T13:31:45.874Z,47.90
2018-03-24T13:34:13.485Z,48.00
2018-03-24T13:36:41.605Z,46.30
2018-03-24T13:39:09.231Z,44.10
2018-03-24T13:41:36.850Z,47.70
2018-03-24T13:44:05.237Z,48.30
2018-03-24T13:46:32.866Z,48.30
2018-03-24T13:49:00.578Z,45.20
2018-03-24T13:51:28.818Z,46.70
2018-03-24T13:53:56.441Z,46.60
2018-03-24T13:56:43.609Z,45.00
2018-03-24T13:59:11.237Z,48.20
2018-03-24T14:01:38.855Z,47.40
2018-03-24T14:04:07.253Z,49.70
2018-03-24T14:06:36.053Z,49.00
2018-03-24T14:09:03.669Z,48.70
2018-03-24T14:11:31.297Z,49.70
2018-03-24T14:14:11.040Z,47.20
2018-03-24T14:16:38.672Z,47.90
2018-03-24T14:19:07.065Z,50.00
2018-03-24T14:21:34.697Z,49.80
2018-03-24T14:24:02.329Z,47.60
2018-03-24T14:26:29.957Z,47.40
2018-03-24T14:28:58.345Z,46.80
2018-03-24T14:31:25.993Z,46.10
2018-03-24T14:33:53.592Z,46.70
2018-03-24T14:36:24.477Z,46.50
2018-03-24T14:38:52.098Z,47.70
2018-03-24T14:41:19.722Z,49.30
2018-03-24T14:43:47.340Z,47.30
2018-03-24T14:46:15.185Z,45.80
2018-03-24T14:48:44.767Z,44.50
2018-03-24T14:51:12.385Z,47.00
2018-03-24T14:53:45.625Z,46.80
2018-03-24T14:56:14.017Z,45.40
2018-03-24T14:58:54.473Z,45.40
2018-03-24T15:01:22.110Z,44.00
2018-03-24T15:04:04.064Z,46.80
2018-03-24T15:06:32.602Z,46.90
2018-03-24T15:09:07.625Z,44.20
2018-03-24T15:11:35.254Z,48.40
2018-03-24T15:14:02.878Z,46.60
2018-03-24T15:19:19.285Z,45.70
2018-03-24T15:21:46.921Z,48.30
2018-03-24T15:24:14.549Z,48.70
2018-03-24T15:26:42.172Z,47.50
2018-03-24T15:29:21.773Z,44.60
2018-03-24T15:32:01.176Z,46.80
2018-03-24T15:34:41.420Z,43.40
2018-03-24T15:37:09.040Z,43.30
2018-03-24T15:39:36.672Z,42.20
2018-03-24T15:42:05.064Z,42.80
2018-03-24T15:44:34.637Z,42.70
2018-03-24T15:47:02.262Z,39.80
2018-03-24T15:49:29.888Z,41.70
2018-03-24T15:51:58.272Z,42.60
2018-03-24T15:54:26.673Z,43.00
2018-03-24T15:56:55.056Z,44.00
2018-03-24T15:59:22.677Z,43.20
2018-03-24T16:02:00.694Z,42.80
2018-03-24T16:04:28.289Z,42.90
2018-03-24T16:06:55.909Z,42.50
2018-03-24T16:09:23.533Z,45.30
2018-03-24T16:14:25.098Z,45.20
2018-03-24T16:16:52.735Z,43.70
2018-03-24T16:19:21.129Z,44.20
2018-03-24T16:21:48.761Z,44.10
2018-03-24T16:24:16.381Z,45.20
2018-03-24T16:26:44.002Z,47.50
2018-03-24T16:29:11.673Z,47.10
2018-03-24T16:31:39.284Z,44.60
2018-03-24T16:34:06.916Z,44.80
2018-03-24T16:36:34.536Z,47.00
2018-03-24T16:39:02.157Z,46.90
2018-03-24T16:41:30.549Z,50.80
2018-03-24T16:43:58.936Z,47.60
2018-03-24T16:46:26.553Z,47.50
2018-03-24T16:48:54.176Z,48.00
2018-03-24T16:51:21.796Z,45.90
2018-03-24T16:53:49.420Z,47.30
2018-03-24T16:56:17.040Z,48.50
2018-03-24T16:58:44.731Z,49.10
2018-03-24T17:01:12.355Z,48.70
2018-03-24T17:03:39.976Z,46.50
2018-03-24T17:06:07.609Z,48.00
2018-03-24T17:08:35.248Z,48.90
2018-03-24T17:13:51.776Z,50.80
2018-03-24T17:16:19.400Z,51.50
2018-03-24T17:18:47.064Z,51.00
2018-03-24T17:21:20.818Z,50.70
2018-03-24T17:23:54.300Z,50.60
2018-03-24T17:26:23.930Z,51.90
2018-03-24T17:28:51.566Z,52.50
2018-03-24T17:31:25.265Z,53.30
2018-03-24T17:33:52.894Z,56.50
2018-03-24T17:36:21.288Z,53.40
2018-03-24T17:38:52.809Z,53.40
2018-03-24T17:41:20.438Z,56.70
2018-03-24T17:43:48.069Z,56.20
2018-03-24T17:46:15.701Z,57.10
2018-03-24T17:48:45.293Z,60.60
2018-03-24T17:51:13.167Z,60.70
2018-03-24T17:53:40.784Z,60.70
2018-03-24T17:56:08.425Z,61.60
2018-03-24T17:58:36.042Z,63.00
2018-03-24T18:01:03.657Z,67.80
2018-03-24T18:03:32.040Z,66.50
2018-03-24T18:05:59.670Z,66.40
2018-03-24T18:08:27.292Z,66.70
2018-03-24T18:10:54.925Z,63.60
2018-03-24T18:13:22.542Z,68.10
2018-03-24T18:15:50.173Z,64.90
2018-03-24T18:18:35.241Z,68.10
2018-03-24T18:21:03.627Z,65.10
2018-03-24T18:26:18.501Z,66.50
2018-03-24T18:28:46.888Z,67.10
2018-03-24T18:31:15.276Z,69.40
2018-03-24T18:33:43.669Z,68.20
2018-03-24T18:36:12.057Z,68.20
2018-03-24T18:38:39.685Z,68.10
2018-03-24T18:41:07.320Z,68.30
2018-03-24T18:43:35.017Z,69.90
2018-03-24T18:46:02.643Z,71.10
2018-03-24T18:48:30.369Z,68.60
2018-03-24T18:50:58.764Z,69.80
2018-03-24T18:53:27.169Z,69.60
2018-03-24T18:55:54.801Z,69.60
2018-03-24T18:58:23.201Z,69.80
2018-03-24T19:00:50.830Z,69.80
2018-03-24T19:03:18.448Z,69.30
2018-03-24T19:05:46.073Z,71.80
2018-03-24T19:08:14.515Z,71.80
2018-03-24T19:10:42.856Z,71.50
2018-03-24T19:13:11.245Z,73.40
2018-03-24T19:15:39.632Z,71.70
2018-03-24T19:18:07.266Z,71.70
2018-03-24T19:20:34.886Z,72.30
2018-03-24T19:23:02.512Z,74.80
2018-03-24T19:25:30.144Z,74.30
2018-03-24T19:27:57.772Z,74.50
2018-03-24T19:30:25.393Z,74.00
2018-03-24T19:32:53.020Z,74.40
2018-03-24T19:35:20.659Z,73.80
2018-03-24T19:37:48.275Z,73.50
2018-03-24T19:40:15.892Z,73.00
2018-03-24T19:42:43.528Z,73.10
2018-03-24T19:45:11.912Z,73.10
2018-03-24T19:47:39.541Z,73.10
2018-03-24T19:50:18.048Z,74.10
2018-03-24T19:52:45.673Z,73.80
2018-03-24T19:55:14.064Z,75.70
2018-03-24T19:57:41.702Z,75.70
2018-03-24T20:00:09.314Z,75.90
2018-03-24T20:02:36.945Z,74.60
2018-03-24T20:05:04.569Z,75.10
2018-03-24T20:07:32.196Z,75.40
2018-03-24T20:09:59.817Z,75.30
2018-03-24T20:12:27.445Z,76.80
2018-03-24T20:14:55.072Z,77.50
2018-03-24T20:17:22.906Z,77.70
2018-03-24T20:19:50.621Z,77.80
2018-03-24T20:22:19.010Z,77.70
2018-03-24T20:24:47.406Z,78.20
2018-03-24T20:27:15.034Z,78.20
2018-03-24T20:29:42.648Z,77.80
2018-03-24T20:32:10.271Z,78.20
2018-03-24T20:34:37.906Z,77.80
2018-03-24T20:37:05.528Z,77.90
2018-03-24T20:39:33.929Z,76.90
2018-03-24T20:42:01.545Z,76.90
2018-03-24T20:44:29.164Z,76.90
2018-03-24T20:46:56.788Z,76.80
2018-03-24T20:49:25.185Z,77.00
2018-03-24T20:51:53.561Z,78.00
2018-03-24T20:54:21.949Z,78.30
2018-03-24T20:56:50.332Z,78.60
2018-03-24T20:59:18.725Z,78.40
2018-03-24T21:01:46.348Z,78.40
2018-03-24T21:04:13.978Z,79.30
2018-03-24T21:06:41.596Z,80.50
2018-03-24T21:09:09.224Z,81.10
2018-03-24T21:11:36.852Z,81.60
2018-03-24T21:14:05.245Z,80.50
2018-03-24T21:16:32.872Z,80.40
2018-03-24T21:19:02.000Z,81.50
2018-03-24T21:21:29.620Z,81.50
2018-03-24T21:23:57.249Z,82.50
2018-03-24T21:26:24.877Z,83.00
2018-03-24T21:29:08.417Z,83.00
2018-03-24T21:31:36.852Z,83.00
2018-03-24T21:34:04.550Z,82.90
2018-03-24T21:36:32.836Z,83.30
2018-03-24T21:39:06.740Z,82.10
2018-03-24T21:41:35.814Z,81.30
2018-03-24T21:44:05.530Z,82.60
2018-03-24T21:46:34.705Z,82.80
2018-03-24T21:49:03.442Z,83.60
2018-03-24T21:51:32.216Z,83.30
2018-03-24T21:54:04.061Z,83.40
2018-03-24T21:56:34.050Z,83.80
2018-03-24T21:59:05.504Z,84.60
2018-03-24T22:01:35.951Z,84.50
2018-03-24T22:04:04.431Z,83.00
2018-03-24T22:06:33.988Z,84.30
2018-03-24T22:09:03.630Z,85.30
2018-03-24T22:11:32.557Z,84.10
2018-03-24T22:14:01.500Z,84.30
2018-03-24T22:16:29.440Z,85.20
2018-03-24T22:18:57.044Z,84.70
2018-03-24T22:21:24.665Z,84.70
2018-03-24T22:23:52.289Z,85.60
2018-03-24T22:26:20.687Z,85.70
2018-03-24T22:28:48.310Z,85.60
2018-03-24T22:31:15.942Z,86.10
2018-03-24T22:33:43.568Z,86.20
2018-03-24T22:36:11.969Z,87.00
2018-03-24T22:38:39.596Z,86.90
2018-03-24T22:41:07.212Z,85.70
2018-03-24T22:43:34.880Z,86.40
2018-03-24T22:46:02.464Z,86.40
2018-03-24T22:48:30.085Z,86.30
2018-03-24T22:50:58.489Z,85.80
2018-03-24T22:53:26.120Z,85.70
2018-03-24T22:55:53.750Z,85.40
2018-03-24T22:58:21.365Z,85.10
2018-03-24T23:00:54.786Z,85.00
2018-03-24T23:03:23.156Z,85.80
2018-03-24T23:05:50.782Z,85.80
2018-03-24T23:08:18.408Z,86.60
2018-03-24T23:10:46.025Z,85.30
2018-03-24T23:13:15.160Z,85.00
2018-03-24T23:15:42.797Z,84.90
2018-03-24T23:18:10.420Z,86.50
2018-03-24T23:20:38.051Z,86.20
2018-03-24T23:23:06.439Z,86.20
2018-03-24T23:25:34.066Z,86.20
2018-03-24T23:28:01.854Z,85.70
2018-03-24T23:30:29.466Z,86.10
2018-03-24T23:32:57.093Z,86.00
2018-03-24T23:35:25.484Z,87.00
2018-03-24T23:37:53.872Z,86.10
2018-03-24T23:40:21.488Z,86.00
2018-03-24T23:42:49.185Z,86.70
2018-03-24T23:45:17.580Z,87.00
2018-03-24T23:47:45.975Z,86.40
2018-03-24T23:50:13.593Z,86.40
2018-03-24T23:52:41.214Z,86.00
2018-03-24T23:55:08.841Z,87.20
2018-03-24T23:57:36.464Z,86.70
